Time;durP1;ratioP1;P1;durP2;ratioP2;P2;SDS_P1;SDS_P2;PMS_P1;PMS_P2;Temp;Humidity;BMP_temperature;BMP_pressure;BME280_temperature;BME280_humidity;BME280_pressure;Samples;Min_cycle;Max_cycle;Signal;HPM_P1;HPM_P2
2021/05/21 00:01:56;;;;;;;28.17;4.30;;;;;;;;;;4990837;28;36248;-79
2021/05/21 00:04:22;;;;;;;22.02;4.93;;;;;;;;;;5014076;28;39313;-80
2021/05/21 00:06:49;;;;;;;26.50;4.25;;;;;;;;;;5000996;28;39131;-79
2021/05/21 00:09:15;;;;;;;24.08;4.47;;;;;;;;;;4983342;28;37528;-79
2021/05/21 00:11:42;;;;;;;26.75;4.07;;;;;;;;;;5009712;28;37090;-78
2021/05/21 00:14:08;;;;;;;26.95;3.80;;;;;;;;;;4996661;28;38093;-78
2021/05/21 00:16:35;;;;;;;28.08;4.85;;;;;;;;;;4988413;28;37829;-78
2021/05/21 00:19:01;;;;;;;21.40;4.63;;;;;;;;;;4994443;28;37520;-79
2021/05/21 00:21:27;;;;;;;19.45;3.78;;;;;;;;;;4994706;28;34780;-79
2021/05/21 00:23:54;;;;;;;20.30;3.42;;;;;;;;;;5013063;28;40185;-79
2021/05/21 00:26:20;;;;;;;22.38;4.35;;;;;;;;;;4983790;28;39262;-78
2021/05/21 00:28:47;;;;;;;18.60;3.28;;;;;;;;;;5013699;28;38475;-80
2021/05/21 00:31:13;;;;;;;28.15;4.75;;;;;;;;;;4984127;28;35824;-79
2021/05/21 00:33:39;;;;;;;23.77;4.00;;;;;;;;;;5008550;28;39188;-78
2021/05/21 00:36:06;;;;;;;27.77;5.00;;;;;;;;;;5002499;28;39253;-78
2021/05/21 00:38:32;;;;;;;20.20;4.65;;;;;;;;;;4990994;28;38959;-78
2021/05/21 00:41:00;;;;;;;32.75;4.88;;;;;;;;;;4989862;28;37109;-79
2021/05/21 00:43:26;;;;;;;25.98;4.60;;;;;;;;;;5012228;28;39791;-78
2021/05/21 00:45:52;;;;;;;29.67;4.88;;;;;;;;;;4987794;28;38504;-77
2021/05/21 00:48:20;;;;;;;31.48;5.57;;;;;;;;;;4993282;28;38658;-78
2021/05/21 00:50:49;;;;;;;31.90;5.53;;;;;;;;;;5000928;28;36852;-78
2021/05/21 00:53:16;;;;;;;24.17;4.57;;;;;;;;;;4983816;28;40400;-76
2021/05/21 00:55:42;;;;;;;28.30;4.95;;;;;;;;;;5000096;28;38751;-77
2021/05/21 00:58:09;;;;;;;30.48;4.90;;;;;;;;;;4986598;28;39231;-77
2021/05/21 01:00:35;;;;;;;30.05;5.47;;;;;;;;;;4979764;28;37441;-78
2021/05/21 01:03:01;;;;;;;34.63;6.03;;;;;;;;;;4979609;28;38405;-77
2021/05/21 01:05:28;;;;;;;30.85;4.70;;;;;;;;;;4997252;28;49519;-77
2021/05/21 01:07:54;;;;;;;31.65;4.82;;;;;;;;;;4981808;28;40131;-78
2021/05/21 01:10:21;;;;;;;33.53;6.05;;;;;;;;;;4986407;28;37268;-77
2021/05/21 01:12:48;;;;;;;29.77;4.75;;;;;;;;;;4986618;28;39750;-78
2021/05/21 01:15:15;;;;;;;26.70;4.13;;;;;;;;;;4979860;28;39837;-78
2021/05/21 01:17:41;;;;;;;36.97;5.65;;;;;;;;;;5002023;28;39355;-79
2021/05/21 01:20:08;;;;;;;34.08;4.60;;;;;;;;;;4983110;28;37736;-78
2021/05/21 01:22:35;;;;;;;25.95;4.50;;;;;;;;;;5004908;28;40624;-78
2021/05/21 01:25:01;;;;;;;31.00;5.07;;;;;;;;;;4988455;28;39335;-78
2021/05/21 01:27:28;;;;;;;36.05;5.22;;;;;;;;;;4998086;28;46789;-78
2021/05/21 01:29:54;;;;;;;23.38;5.30;;;;;;;;;;4998486;28;37691;-77
2021/05/21 01:32:20;;;;;;;28.20;5.85;;;;;;;;;;4987148;28;39127;-78
2021/05/21 01:34:47;;;;;;;23.27;4.85;;;;;;;;;;5006467;28;38885;-78
2021/05/21 01:37:14;;;;;;;27.83;4.53;;;;;;;;;;5006350;28;38204;-78
2021/05/21 01:39:41;;;;;;;26.60;5.07;;;;;;;;;;5009578;28;37865;-78
2021/05/21 01:42:10;;;;;;;27.33;5.05;;;;;;;;;;5006960;28;41700;-78
2021/05/21 01:44:36;;;;;;;34.40;5.53;;;;;;;;;;5007198;28;39050;-78
2021/05/21 01:47:02;;;;;;;29.55;4.78;;;;;;;;;;5007606;28;39542;-77
2021/05/21 01:49:29;;;;;;;38.53;6.17;;;;;;;;;;4985610;28;36972;-78
2021/05/21 01:51:58;;;;;;;25.08;5.43;;;;;;;;;;4988224;28;39506;-77
2021/05/21 01:54:25;;;;;;;37.35;5.10;;;;;;;;;;4993564;28;37651;-78
2021/05/21 01:56:52;;;;;;;25.90;4.95;;;;;;;;;;4990072;28;39342;-77
2021/05/21 01:59:22;;;;;;;31.15;5.40;;;;;;;;;;5012616;28;37043;-77
2021/05/21 02:01:48;;;;;;;27.67;4.38;;;;;;;;;;4982637;28;39810;-77
2021/05/21 02:04:15;;;;;;;30.02;5.00;;;;;;;;;;5008612;28;39026;-78
2021/05/21 02:06:42;;;;;;;30.00;5.35;;;;;;;;;;4989993;28;38911;-78
2021/05/21 02:09:09;;;;;;;34.00;5.45;;;;;;;;;;4988369;28;37519;-78
2021/05/21 02:11:36;;;;;;;35.65;5.60;;;;;;;;;;5006331;28;39225;-78
2021/05/21 02:14:03;;;;;;;32.22;5.25;;;;;;;;;;4992152;28;39868;-78
2021/05/21 02:16:29;;;;;;;33.42;5.43;;;;;;;;;;4991013;28;47221;-78
2021/05/21 02:18:56;;;;;;;29.50;6.72;;;;;;;;;;4985496;28;37191;-77
2021/05/21 02:21:28;;;;;;;29.77;5.40;;;;;;;;;;5005729;28;39113;-78
2021/05/21 02:23:54;;;;;;;28.15;5.43;;;;;;;;;;5003447;28;38462;-78
2021/05/21 02:26:21;;;;;;;37.85;5.65;;;;;;;;;;5002099;28;39418;-78
2021/05/21 02:28:47;;;;;;;31.97;4.90;;;;;;;;;;4988677;28;38650;-78
2021/05/21 02:31:13;;;;;;;29.67;4.93;;;;;;;;;;4977195;28;40288;-78
2021/05/21 02:33:40;;;;;;;31.50;5.25;;;;;;;;;;4987646;28;39162;-78
2021/05/21 02:36:06;;;;;;;30.20;6.40;;;;;;;;;;4986286;28;40038;-78
2021/05/21 02:38:33;;;;;;;28.17;4.30;;;;;;;;;;4989426;28;35941;-78
2021/05/21 02:40:59;;;;;;;34.17;5.30;;;;;;;;;;4998389;28;39621;-77
2021/05/21 02:43:26;;;;;;;28.67;4.80;;;;;;;;;;4983505;28;40289;-78
2021/05/21 02:45:52;;;;;;;27.67;4.40;;;;;;;;;;4992830;28;39142;-78
2021/05/21 02:48:18;;;;;;;29.77;4.70;;;;;;;;;;4987557;28;35743;-78
2021/05/21 02:50:45;;;;;;;33.55;5.47;;;;;;;;;;5001330;28;38971;-78
2021/05/21 02:53:11;;;;;;;36.10;5.28;;;;;;;;;;4990116;28;39792;-78
2021/05/21 02:55:37;;;;;;;32.40;5.30;;;;;;;;;;4986786;28;38639;-77
2021/05/21 02:58:04;;;;;;;32.47;5.40;;;;;;;;;;4980310;28;36417;-78
2021/05/21 03:00:31;;;;;;;28.73;5.10;;;;;;;;;;5002537;28;38738;-78
2021/05/21 03:02:57;;;;;;;26.40;4.47;;;;;;;;;;4987037;28;37456;-78
2021/05/21 03:05:23;;;;;;;31.33;5.07;;;;;;;;;;4995146;28;38074;-78
2021/05/21 03:07:57;;;;;;;32.53;4.68;;;;;;;;;;5003436;28;37858;-77
2021/05/21 03:10:24;;;;;;;32.95;4.53;;;;;;;;;;4983867;28;40226;-78
2021/05/21 03:12:51;;;;;;;26.80;4.50;;;;;;;;;;4981911;28;38710;-79
2021/05/21 03:15:17;;;;;;;28.57;3.93;;;;;;;;;;4977027;28;40311;-78
2021/05/21 03:17:44;;;;;;;26.67;4.50;;;;;;;;;;4983126;28;37906;-78
2021/05/21 03:20:11;;;;;;;28.45;4.75;;;;;;;;;;4980920;28;38986;-79
2021/05/21 03:22:37;;;;;;;31.77;4.70;;;;;;;;;;5005021;28;39100;-78
2021/05/21 03:25:05;;;;;;;28.08;5.00;;;;;;;;;;5006624;28;38185;-78
2021/05/21 03:27:32;;;;;;;37.90;5.43;;;;;;;;;;4984905;28;47146;-78
2021/05/21 03:30:02;;;;;;;29.90;5.15;;;;;;;;;;5007073;28;42121;-78
2021/05/21 03:32:28;;;;;;;33.57;4.80;;;;;;;;;;4986403;28;46924;-77
2021/05/21 03:34:54;;;;;;;30.15;4.18;;;;;;;;;;5006633;28;38052;-77
2021/05/21 03:37:21;;;;;;;33.45;5.00;;;;;;;;;;4989995;28;38722;-78
2021/05/21 03:39:48;;;;;;;35.63;5.32;;;;;;;;;;4987671;28;39267;-78
2021/05/21 03:42:14;;;;;;;33.05;4.60;;;;;;;;;;4985786;28;39744;-78
2021/05/21 03:44:41;;;;;;;27.55;5.55;;;;;;;;;;5007155;28;38159;-78
2021/05/21 03:47:07;;;;;;;27.42;4.10;;;;;;;;;;5000374;28;38344;-78
2021/05/21 03:49:34;;;;;;;29.27;4.40;;;;;;;;;;4987523;28;39458;-77
2021/05/21 03:52:00;;;;;;;25.40;4.35;;;;;;;;;;5003666;28;39698;-77
2021/05/21 03:54:26;;;;;;;22.27;4.30;;;;;;;;;;5002289;28;40963;-78
2021/05/21 03:56:53;;;;;;;27.25;3.95;;;;;;;;;;5004419;28;37405;-77
2021/05/21 03:59:20;;;;;;;34.95;4.30;;;;;;;;;;4985883;28;39915;-78
2021/05/21 04:01:49;;;;;;;26.42;4.72;;;;;;;;;;4982507;28;39265;-78
2021/05/21 04:04:16;;;;;;;29.52;4.40;;;;;;;;;;4986459;28;40462;-78
2021/05/21 04:06:42;;;;;;;29.13;4.10;;;;;;;;;;4984026;28;37705;-78
2021/05/21 04:09:08;;;;;;;26.23;4.50;;;;;;;;;;4986340;28;39434;-78
2021/05/21 04:11:35;;;;;;;20.95;3.72;;;;;;;;;;4997524;28;39549;-78
2021/05/21 04:14:03;;;;;;;24.38;3.92;;;;;;;;;;4994879;28;39669;-78
2021/05/21 04:16:29;;;;;;;23.98;4.03;;;;;;;;;;5005461;28;49209;-78
2021/05/21 04:18:56;;;;;;;25.15;3.90;;;;;;;;;;4985894;28;39972;-79
2021/05/21 04:21:22;;;;;;;22.77;4.50;;;;;;;;;;5004670;28;41328;-77
2021/05/21 04:23:49;;;;;;;27.42;4.40;;;;;;;;;;4982878;28;39203;-77
2021/05/21 04:26:16;;;;;;;32.70;5.75;;;;;;;;;;4985038;28;38423;-77
2021/05/21 04:28:47;;;;;;;19.92;4.30;;;;;;;;;;4985480;28;37487;-78
2021/05/21 04:31:13;;;;;;;25.73;4.78;;;;;;;;;;4996956;28;40202;-78
2021/05/21 04:33:39;;;;;;;16.75;3.63;;;;;;;;;;4980054;28;37725;-78
2021/05/21 04:36:06;;;;;;;23.90;5.03;;;;;;;;;;4981813;28;37719;-78
2021/05/21 04:38:33;;;;;;;32.25;5.25;;;;;;;;;;4986275;28;39518;-76
2021/05/21 04:40:59;;;;;;;23.13;4.18;;;;;;;;;;4980212;28;39304;-77
2021/05/21 04:43:26;;;;;;;18.85;3.67;;;;;;;;;;4984071;28;37245;-77
2021/05/21 04:45:53;;;;;;;26.65;4.43;;;;;;;;;;5007531;28;37537;-78
2021/05/21 04:48:21;;;;;;;27.13;4.57;;;;;;;;;;5006737;28;39320;-78
2021/05/21 04:50:47;;;;;;;23.63;3.92;;;;;;;;;;5001117;28;40372;-78
2021/05/21 04:53:14;;;;;;;26.20;4.68;;;;;;;;;;4989914;28;39358;-78
2021/05/21 04:55:41;;;;;;;18.98;3.35;;;;;;;;;;4986423;28;35868;-78
2021/05/21 04:58:08;;;;;;;25.00;4.28;;;;;;;;;;5004183;28;39132;-79
2021/05/21 05:00:35;;;;;;;25.95;4.00;;;;;;;;;;5004879;28;39030;-78
2021/05/21 05:03:05;;;;;;;27.20;5.25;;;;;;;;;;5005957;28;38146;-77
2021/05/21 05:05:32;;;;;;;25.15;3.80;;;;;;;;;;5007454;28;46987;-78
2021/05/21 05:07:58;;;;;;;19.92;3.90;;;;;;;;;;4987514;28;39736;-78
2021/05/21 05:10:25;;;;;;;24.80;4.10;;;;;;;;;;4977615;28;37910;-77
2021/05/21 05:12:52;;;;;;;17.00;3.70;;;;;;;;;;4987581;28;37401;-77
2021/05/21 05:15:19;;;;;;;19.08;3.83;;;;;;;;;;4981115;28;38405;-77
2021/05/21 05:17:50;;;;;;;26.63;4.72;;;;;;;;;;4978261;28;39549;-77
2021/05/21 05:20:20;;;;;;;24.17;4.80;;;;;;;;;;5000155;28;41263;-78
2021/05/21 05:22:47;;;;;;;19.33;3.97;;;;;;;;;;5006226;28;38392;-77
2021/05/21 05:25:13;;;;;;;15.98;3.72;;;;;;;;;;4984897;28;37107;-77
2021/05/21 05:27:40;;;;;;;27.10;5.07;;;;;;;;;;5005111;28;38455;-77
2021/05/21 05:30:06;;;;;;;30.00;5.47;;;;;;;;;;4987581;28;41332;-77
2021/05/21 05:32:33;;;;;;;20.67;4.43;;;;;;;;;;5006008;28;48829;-77
2021/05/21 05:34:59;;;;;;;27.05;6.03;;;;;;;;;;4982940;28;37943;-77
2021/05/21 05:37:26;;;;;;;25.38;4.10;;;;;;;;;;4999950;28;38916;-78
2021/05/21 05:39:52;;;;;;;29.25;4.22;;;;;;;;;;4987426;28;37717;-78
2021/05/21 05:42:18;;;;;;;21.20;4.85;;;;;;;;;;5000956;28;38362;-78
2021/05/21 05:44:45;;;;;;;21.30;4.55;;;;;;;;;;4998524;28;36859;-77
2021/05/21 05:47:11;;;;;;;23.25;4.65;;;;;;;;;;4984789;28;39151;-78
2021/05/21 05:49:38;;;;;;;20.02;4.18;;;;;;;;;;5002197;28;38124;-77
2021/05/21 05:52:04;;;;;;;21.17;3.45;;;;;;;;;;5007527;28;40196;-80
2021/05/21 05:54:31;;;;;;;25.65;4.72;;;;;;;;;;4986019;28;36627;-77
2021/05/21 05:56:57;;;;;;;21.35;4.15;;;;;;;;;;4985932;28;39365;-77
2021/05/21 05:59:26;;;;;;;24.40;3.92;;;;;;;;;;5004316;28;39764;-78
2021/05/21 06:01:52;;;;;;;21.73;4.43;;;;;;;;;;4999698;28;38342;-78
2021/05/21 06:04:18;;;;;;;22.77;4.47;;;;;;;;;;5004935;28;37353;-78
2021/05/21 06:06:45;;;;;;;23.20;4.25;;;;;;;;;;4990098;28;40894;-80
2021/05/21 06:09:11;;;;;;;21.33;3.90;;;;;;;;;;4986511;28;38997;-79
2021/05/21 06:11:37;;;;;;;22.00;4.80;;;;;;;;;;4985345;28;37032;-78
2021/05/21 06:14:07;;;;;;;24.50;4.32;;;;;;;;;;5012157;28;36760;-78
2021/05/21 06:16:33;;;;;;;18.13;3.78;;;;;;;;;;5008420;28;37991;-78
2021/05/21 06:19:00;;;;;;;20.77;4.97;;;;;;;;;;4986776;28;38232;-77
2021/05/21 06:21:26;;;;;;;24.63;4.18;;;;;;;;;;4981083;28;39206;-77
2021/05/21 06:23:53;;;;;;;27.30;5.22;;;;;;;;;;4988663;28;37716;-77
2021/05/21 06:26:32;;;;;;;19.40;4.22;;;;;;;;;;5008781;28;40331;-76
2021/05/21 06:28:58;;;;;;;19.67;4.15;;;;;;;;;;4988677;28;38020;-77
2021/05/21 06:31:25;;;;;;;21.80;3.88;;;;;;;;;;4989295;28;38036;-76
2021/05/21 06:33:51;;;;;;;21.95;4.28;;;;;;;;;;4984299;28;36020;-76
2021/05/21 06:36:18;;;;;;;22.65;4.28;;;;;;;;;;4994101;28;36112;-79
2021/05/21 06:38:44;;;;;;;20.65;4.57;;;;;;;;;;4987630;28;38853;-78
2021/05/21 06:41:10;;;;;;;22.45;4.38;;;;;;;;;;5012289;28;39504;-78
2021/05/21 06:43:37;;;;;;;16.40;3.97;;;;;;;;;;4987689;28;35872;-78
2021/05/21 06:46:04;;;;;;;19.60;3.80;;;;;;;;;;5003718;28;37535;-78
2021/05/21 06:48:35;;;;;;;20.92;3.58;;;;;;;;;;4991873;28;37800;-78
2021/05/21 06:51:03;;;;;;;19.48;3.53;;;;;;;;;;5006504;28;38466;-76
2021/05/21 06:53:30;;;;;;;22.30;4.15;;;;;;;;;;5009485;28;35886;-78
2021/05/21 06:55:56;;;;;;;20.77;3.78;;;;;;;;;;4986800;28;38126;-78
2021/05/21 06:58:26;;;;;;;24.13;4.20;;;;;;;;;;4984506;28;38126;-77
2021/05/21 07:00:52;;;;;;;20.80;4.63;;;;;;;;;;4984985;28;37645;-77
2021/05/21 07:03:19;;;;;;;27.60;4.53;;;;;;;;;;4989272;28;35770;-76
2021/05/21 07:05:46;;;;;;;20.38;4.47;;;;;;;;;;4976003;28;38748;-76
2021/05/21 07:08:12;;;;;;;16.50;4.93;;;;;;;;;;4979023;28;38349;-76
2021/05/21 07:10:39;;;;;;;19.77;3.75;;;;;;;;;;4988921;28;37701;-77
2021/05/21 07:13:09;;;;;;;19.23;3.67;;;;;;;;;;4998855;28;37705;-78
2021/05/21 07:15:35;;;;;;;21.63;4.25;;;;;;;;;;4982772;28;37756;-76
2021/05/21 07:18:01;;;;;;;25.77;5.22;;;;;;;;;;4977567;28;37949;-76
2021/05/21 07:20:28;;;;;;;24.20;4.88;;;;;;;;;;4982074;28;47448;-75
2021/05/21 07:22:54;;;;;;;18.88;3.90;;;;;;;;;;5000796;28;36969;-76
2021/05/21 07:25:21;;;;;;;19.08;3.47;;;;;;;;;;4992969;28;39009;-76
2021/05/21 07:27:47;;;;;;;23.20;3.47;;;;;;;;;;4984729;28;38004;-76
2021/05/21 07:30:14;;;;;;;21.98;4.28;;;;;;;;;;4984039;28;39159;-77
2021/05/21 07:32:41;;;;;;;15.60;3.75;;;;;;;;;;4991127;28;36970;-76
2021/05/21 07:35:07;;;;;;;20.45;4.32;;;;;;;;;;4974666;28;38339;-77
2021/05/21 07:37:34;;;;;;;17.33;3.75;;;;;;;;;;4980462;28;38875;-76
2021/05/21 07:40:01;;;;;;;27.13;3.97;;;;;;;;;;4988187;28;38891;-75
2021/05/21 07:42:27;;;;;;;19.00;3.78;;;;;;;;;;4974366;28;47307;-77
2021/05/21 07:44:54;;;;;;;18.48;4.07;;;;;;;;;;5002738;28;36898;-77
2021/05/21 07:47:20;;;;;;;17.52;4.00;;;;;;;;;;5003266;28;39732;-78
2021/05/21 07:49:47;;;;;;;20.05;3.97;;;;;;;;;;4988207;28;37656;-76
2021/05/21 07:52:13;;;;;;;16.88;3.00;;;;;;;;;;4984404;28;36908;-77
2021/05/21 07:54:39;;;;;;;20.73;3.92;;;;;;;;;;4975536;28;37819;-77
2021/05/21 07:57:06;;;;;;;21.83;4.18;;;;;;;;;;5004841;28;39919;-77
2021/05/21 07:59:33;;;;;;;14.90;3.90;;;;;;;;;;4988160;28;37473;-78
2021/05/21 08:01:59;;;;;;;22.58;4.38;;;;;;;;;;4991640;28;37653;-77
2021/05/21 08:04:25;;;;;;;14.73;3.30;;;;;;;;;;4989977;28;37494;-78
2021/05/21 08:06:52;;;;;;;17.73;3.42;;;;;;;;;;4980832;28;37792;-77
2021/05/21 08:09:18;;;;;;;16.42;3.47;;;;;;;;;;4991986;28;37469;-77
2021/05/21 08:11:45;;;;;;;21.55;4.15;;;;;;;;;;5003038;28;38268;-76
2021/05/21 08:14:11;;;;;;;22.25;5.45;;;;;;;;;;5005751;28;39099;-77
2021/05/21 08:16:38;;;;;;;17.70;3.53;;;;;;;;;;4981308;28;38298;-77
2021/05/21 08:19:05;;;;;;;20.77;4.57;;;;;;;;;;4981821;28;38584;-77
2021/05/21 08:21:31;;;;;;;22.48;3.85;;;;;;;;;;4987310;28;35915;-76
2021/05/21 08:23:58;;;;;;;17.08;3.53;;;;;;;;;;5003835;28;39695;-76
2021/05/21 08:26:27;;;;;;;18.73;3.88;;;;;;;;;;4986961;28;39233;-76
2021/05/21 08:28:54;;;;;;;21.45;4.45;;;;;;;;;;4986515;28;39574;-77
2021/05/21 08:31:21;;;;;;;18.35;4.05;;;;;;;;;;5000803;28;36038;-75
2021/05/21 08:33:51;;;;;;;20.58;4.60;;;;;;;;;;4985485;28;40567;-75
2021/05/21 08:36:17;;;;;;;17.02;3.92;;;;;;;;;;5000954;28;38840;-76
2021/05/21 08:38:45;;;;;;;14.73;3.25;;;;;;;;;;5002479;28;39314;-77
2021/05/21 08:41:13;;;;;;;18.48;3.65;;;;;;;;;;5000707;28;37946;-81
2021/05/21 08:43:45;;;;;;;18.30;3.95;;;;;;;;;;4988093;28;39844;-76
2021/05/21 08:46:11;;;;;;;16.80;3.90;;;;;;;;;;4996181;28;39033;-76
2021/05/21 08:48:39;;;;;;;21.17;4.07;;;;;;;;;;4986611;28;39461;-77
2021/05/21 08:51:06;;;;;;;16.38;3.60;;;;;;;;;;4984602;28;36079;-77
2021/05/21 08:53:33;;;;;;;15.00;3.75;;;;;;;;;;4986984;28;39309;-77
2021/05/21 08:56:00;;;;;;;13.02;3.33;;;;;;;;;;4979736;28;38199;-78
2021/05/21 08:58:26;;;;;;;15.93;3.20;;;;;;;;;;4983008;28;41399;-77
2021/05/21 09:00:52;;;;;;;17.10;3.60;;;;;;;;;;4997861;28;37016;-76
2021/05/21 09:03:23;;;;;;;17.40;3.65;;;;;;;;;;5004783;28;39705;-76
2021/05/21 09:06:23;;;;;;;16.42;3.60;;;;;;;;;;4979193;28;38964;-76
2021/05/21 09:08:50;;;;;;;16.90;3.50;;;;;;;;;;5003508;28;47847;-77
2021/05/21 09:11:24;;;;;;;14.68;4.20;;;;;;;;;;4971152;28;35683;-77
2021/05/21 09:13:52;;;;;;;16.58;3.80;;;;;;;;;;4990225;28;37978;-75
2021/05/21 09:16:27;;;;;;;18.23;3.33;;;;;;;;;;4997925;28;39914;-76
2021/05/21 09:19:06;;;;;;;15.48;3.65;;;;;;;;;;5004418;28;39415;-77
2021/05/21 09:21:51;;;;;;;23.33;4.72;;;;;;;;;;4981836;28;47459;-76
2021/05/21 09:24:18;;;;;;;18.15;3.72;;;;;;;;;;4993766;28;39494;-75
2021/05/21 09:26:46;;;;;;;14.40;3.05;;;;;;;;;;4984350;28;38815;-76
2021/05/21 09:29:15;;;;;;;16.08;3.22;;;;;;;;;;5006521;28;39936;-76
2021/05/21 09:31:45;;;;;;;20.30;3.60;;;;;;;;;;5003629;28;36653;-76
2021/05/21 09:34:12;;;;;;;16.85;3.20;;;;;;;;;;5000105;28;38072;-77
2021/05/21 09:36:39;;;;;;;17.17;4.00;;;;;;;;;;4979694;28;39221;-76
2021/05/21 09:39:12;;;;;;;15.65;3.28;;;;;;;;;;4979039;28;37290;-77
2021/05/21 09:41:47;;;;;;;15.85;3.35;;;;;;;;;;5004971;28;37136;-76
2021/05/21 09:44:14;;;;;;;19.23;3.35;;;;;;;;;;5013073;28;39028;-76
2021/05/21 09:46:41;;;;;;;10.73;2.83;;;;;;;;;;5009150;28;39813;-77
2021/05/21 09:49:26;;;;;;;17.75;3.63;;;;;;;;;;5001062;28;37456;-77
2021/05/21 09:51:56;;;;;;;17.55;3.20;;;;;;;;;;5000369;28;36776;-78
2021/05/21 09:54:22;;;;;;;13.00;2.97;;;;;;;;;;5003648;28;38794;-77
2021/05/21 09:57:01;;;;;;;15.15;2.83;;;;;;;;;;4988943;28;38483;-78
2021/05/21 09:59:57;;;;;;;17.95;3.10;;;;;;;;;;4977017;28;47596;-77
2021/05/21 10:02:27;;;;;;;16.48;3.17;;;;;;;;;;4979077;28;37072;-76
2021/05/21 10:04:54;;;;;;;14.23;2.72;;;;;;;;;;5000511;28;40448;-77
2021/05/21 10:07:21;;;;;;;10.68;2.35;;;;;;;;;;5003528;28;40414;-76
2021/05/21 10:09:48;;;;;;;9.63;2.45;;;;;;;;;;5007657;28;41850;-76
2021/05/21 10:12:15;;;;;;;14.85;3.13;;;;;;;;;;5001166;28;37355;-77
2021/05/21 10:14:48;;;;;;;13.88;3.08;;;;;;;;;;4975215;28;37649;-78
2021/05/21 10:17:17;;;;;;;13.80;3.20;;;;;;;;;;4987871;28;38456;-77
2021/05/21 10:19:43;;;;;;;10.70;2.47;;;;;;;;;;4997135;28;38429;-78
2021/05/21 10:22:12;;;;;;;14.88;3.00;;;;;;;;;;4981239;28;35488;-77
2021/05/21 10:24:40;;;;;;;13.43;2.75;;;;;;;;;;4979484;28;38357;-79
2021/05/21 10:27:11;;;;;;;13.75;2.60;;;;;;;;;;4988677;28;39117;-77
2021/05/21 10:29:37;;;;;;;14.45;2.95;;;;;;;;;;5000710;28;38493;-78
2021/05/21 10:32:15;;;;;;;12.43;2.80;;;;;;;;;;5009213;28;38066;-79
2021/05/21 10:34:42;;;;;;;12.40;2.95;;;;;;;;;;4995765;28;39439;-79
2021/05/21 10:37:27;;;;;;;14.85;3.08;;;;;;;;;;5004993;28;39172;-78
2021/05/21 10:40:00;;;;;;;13.23;3.15;;;;;;;;;;4986135;28;37507;-78
2021/05/21 10:42:27;;;;;;;19.00;2.63;;;;;;;;;;4993016;28;37137;-80
2021/05/21 10:44:54;;;;;;;11.25;2.60;;;;;;;;;;4989468;28;39519;-78
2021/05/21 10:47:22;;;;;;;10.82;2.50;;;;;;;;;;4982919;28;38042;-79
2021/05/21 10:49:49;;;;;;;8.43;2.45;;;;;;;;;;5004020;28;38348;-79
2021/05/21 10:52:15;;;;;;;13.98;2.85;;;;;;;;;;4983448;28;36973;-79
2021/05/21 10:54:45;;;;;;;9.73;2.72;;;;;;;;;;4983239;28;38617;-77
2021/05/21 10:57:13;;;;;;;13.55;2.33;;;;;;;;;;4985288;28;37810;-77
2021/05/21 10:59:43;;;;;;;14.18;2.30;;;;;;;;;;5009933;28;38634;-79
2021/05/21 11:02:14;;;;;;;8.93;2.67;;;;;;;;;;5012225;28;37123;-77
2021/05/21 11:04:41;;;;;;;9.82;2.63;;;;;;;;;;5013219;28;39854;-78
2021/05/21 11:07:07;;;;;;;12.25;2.83;;;;;;;;;;5011609;28;39024;-77
2021/05/21 11:09:42;;;;;;;8.98;2.47;;;;;;;;;;4997590;28;37526;-78
2021/05/21 11:12:15;;;;;;;12.68;2.97;;;;;;;;;;5017922;28;37158;-80
2021/05/21 11:14:45;;;;;;;10.40;2.22;;;;;;;;;;5016771;28;40268;-80
2021/05/21 11:17:25;;;;;;;15.13;2.80;;;;;;;;;;5000390;28;36606;-81
2021/05/21 11:19:53;;;;;;;11.00;2.65;;;;;;;;;;4983499;28;38093;-77
2021/05/21 11:22:22;;;;;;;9.38;2.70;;;;;;;;;;4999029;28;35728;-77
2021/05/21 11:24:52;;;;;;;13.57;3.00;;;;;;;;;;5006362;28;39185;-78
2021/05/21 11:27:18;;;;;;;14.15;3.83;;;;;;;;;;4981263;28;39892;-76
2021/05/21 11:29:47;;;;;;;12.93;3.15;;;;;;;;;;4982290;28;38855;-76
2021/05/21 11:32:14;;;;;;;13.27;2.78;;;;;;;;;;4981904;28;37657;-76
2021/05/21 11:34:40;;;;;;;16.85;3.28;;;;;;;;;;4989109;28;37999;-76
2021/05/21 11:37:07;;;;;;;15.93;3.28;;;;;;;;;;4991967;28;39638;-76
2021/05/21 11:39:34;;;;;;;13.15;2.72;;;;;;;;;;4988698;28;39352;-76
2021/05/21 11:42:04;;;;;;;12.60;2.28;;;;;;;;;;4986367;28;35870;-76
2021/05/21 11:44:32;;;;;;;10.95;2.70;;;;;;;;;;4979265;28;47338;-78
2021/05/21 11:47:01;;;;;;;10.68;2.20;;;;;;;;;;4986905;28;39328;-77
2021/05/21 11:49:27;;;;;;;12.95;2.40;;;;;;;;;;4985694;28;48092;-77
2021/05/21 11:51:58;;;;;;;10.98;2.38;;;;;;;;;;4984636;28;37810;-78
2021/05/21 11:54:26;;;;;;;10.00;2.35;;;;;;;;;;4975894;28;42536;-78
2021/05/21 11:56:54;;;;;;;11.38;2.35;;;;;;;;;;5001088;28;39757;-76
2021/05/21 11:59:22;;;;;;;11.98;3.00;;;;;;;;;;4983331;28;39725;-77
2021/05/21 12:01:52;;;;;;;14.23;2.15;;;;;;;;;;4985028;28;37641;-77
2021/05/21 12:04:20;;;;;;;15.80;2.42;;;;;;;;;;4984388;28;40414;-78
2021/05/21 12:06:48;;;;;;;13.02;3.03;;;;;;;;;;4986321;28;39641;-76
2021/05/21 12:09:15;;;;;;;11.15;2.60;;;;;;;;;;4989913;28;39102;-79
2021/05/21 12:11:42;;;;;;;9.88;2.30;;;;;;;;;;4982789;28;35607;-78
2021/05/21 12:14:10;;;;;;;13.85;3.13;;;;;;;;;;5006270;28;38425;-78
2021/05/21 12:16:37;;;;;;;11.55;2.30;;;;;;;;;;4987586;28;39544;-78
2021/05/21 12:19:04;;;;;;;9.07;2.20;;;;;;;;;;4991377;28;38891;-77
2021/05/21 12:21:39;;;;;;;10.10;2.13;;;;;;;;;;5008479;28;37637;-80
2021/05/21 12:24:06;;;;;;;7.70;2.80;;;;;;;;;;4990291;28;37901;-78
2021/05/21 12:26:37;;;;;;;9.52;1.80;;;;;;;;;;4998009;28;38610;-78
2021/05/21 12:29:08;;;;;;;6.07;1.70;;;;;;;;;;5003299;28;39645;-79
2021/05/21 12:31:37;;;;;;;9.60;1.92;;;;;;;;;;4976374;28;47138;-79
2021/05/21 12:34:04;;;;;;;11.85;2.90;;;;;;;;;;4988334;28;40423;-78
2021/05/21 12:36:32;;;;;;;8.05;1.65;;;;;;;;;;5005071;28;39625;-78
2021/05/21 12:39:00;;;;;;;10.75;2.30;;;;;;;;;;5018809;28;39852;-78
2021/05/21 12:41:28;;;;;;;13.63;2.38;;;;;;;;;;4993216;28;38372;-79
2021/05/21 12:43:54;;;;;;;7.53;2.45;;;;;;;;;;4983210;28;38994;-79
2021/05/21 12:46:21;;;;;;;8.02;2.22;;;;;;;;;;4983059;28;39124;-79
2021/05/21 12:48:51;;;;;;;13.25;3.22;;;;;;;;;;4985405;28;39688;-79
2021/05/21 12:51:21;;;;;;;13.05;2.97;;;;;;;;;;5007955;28;37788;-79
2021/05/21 12:53:49;;;;;;;15.68;3.17;;;;;;;;;;4993198;28;39738;-79
2021/05/21 12:56:29;;;;;;;9.77;3.10;;;;;;;;;;4989345;28;39425;-81
2021/05/21 12:58:55;;;;;;;15.30;3.20;;;;;;;;;;4995707;28;39408;-79
2021/05/21 13:01:21;;;;;;;11.77;3.00;;;;;;;;;;4999104;28;37521;-80
2021/05/21 13:03:52;;;;;;;15.95;3.42;;;;;;;;;;5001088;28;38702;-80
2021/05/21 13:06:29;;;;;;;12.90;2.60;;;;;;;;;;5010610;28;39247;-80
2021/05/21 13:08:57;;;;;;;13.73;2.97;;;;;;;;;;5024015;28;39964;-80
2021/05/21 13:11:23;;;;;;;17.25;2.90;;;;;;;;;;5014141;28;37033;-80
2021/05/21 13:13:50;;;;;;;13.65;2.88;;;;;;;;;;5012861;28;37364;-80
2021/05/21 13:16:16;;;;;;;12.80;2.83;;;;;;;;;;4995954;28;40742;-80
2021/05/21 13:18:43;;;;;;;12.45;2.90;;;;;;;;;;5020332;28;39094;-79
2021/05/21 13:21:10;;;;;;;13.60;3.22;;;;;;;;;;4997600;28;36805;-80
2021/05/21 13:23:37;;;;;;;11.90;2.78;;;;;;;;;;4996996;28;37454;-81
2021/05/21 13:26:05;;;;;;;16.08;2.95;;;;;;;;;;5014779;28;39184;-79
2021/05/21 13:28:38;;;;;;;9.57;2.53;;;;;;;;;;4999542;28;39972;-80
2021/05/21 13:31:05;;;;;;;10.27;2.70;;;;;;;;;;4988027;28;35506;-81
2021/05/21 13:33:32;;;;;;;15.07;2.58;;;;;;;;;;4991070;28;37262;-79
2021/05/21 13:35:58;;;;;;;11.80;2.78;;;;;;;;;;4982052;28;39331;-80
2021/05/21 13:38:25;;;;;;;14.65;3.08;;;;;;;;;;4990809;28;37299;-79
2021/05/21 13:40:51;;;;;;;13.68;2.90;;;;;;;;;;5013782;28;37942;-80
2021/05/21 13:43:19;;;;;;;24.38;2.67;;;;;;;;;;5031940;28;39183;-81
2021/05/21 13:45:46;;;;;;;14.70;2.80;;;;;;;;;;4994351;28;38210;-79
2021/05/21 13:48:13;;;;;;;17.73;2.15;;;;;;;;;;5004862;28;39150;-80
2021/05/21 13:50:40;;;;;;;14.95;2.80;;;;;;;;;;4980730;28;38180;-80
2021/05/21 13:53:07;;;;;;;24.98;2.53;;;;;;;;;;4996099;28;38275;-79
2021/05/21 13:55:34;;;;;;;15.45;2.60;;;;;;;;;;4993726;28;39884;-79
2021/05/21 13:58:00;;;;;;;14.90;1.88;;;;;;;;;;5026117;28;38879;-79
2021/05/21 14:00:26;;;;;;;15.65;2.20;;;;;;;;;;5003069;28;37111;-80
2021/05/21 14:02:53;;;;;;;12.65;1.85;;;;;;;;;;4994174;28;38739;-79
2021/05/21 14:05:20;;;;;;;11.95;2.28;;;;;;;;;;4988444;28;37457;-78
2021/05/21 14:07:47;;;;;;;13.98;2.72;;;;;;;;;;4990763;28;37554;-78
2021/05/21 14:10:13;;;;;;;11.93;2.33;;;;;;;;;;5017863;28;36976;-78
2021/05/21 14:12:41;;;;;;;10.00;2.67;;;;;;;;;;5029189;28;39774;-80
2021/05/21 14:15:08;;;;;;;11.63;2.17;;;;;;;;;;5010164;28;39430;-78
2021/05/21 14:17:34;;;;;;;23.05;3.33;;;;;;;;;;5011895;28;39835;-80
2021/05/21 14:20:00;;;;;;;17.63;2.67;;;;;;;;;;4991973;28;38193;-79
2021/05/21 14:22:27;;;;;;;22.90;2.90;;;;;;;;;;4977289;28;39312;-79
2021/05/21 14:24:54;;;;;;;13.05;2.50;;;;;;;;;;4970545;28;40392;-80
2021/05/21 14:27:21;;;;;;;11.82;2.65;;;;;;;;;;4991616;28;38926;-77
2021/05/21 14:29:47;;;;;;;12.98;2.30;;;;;;;;;;4994934;28;37053;-79
2021/05/21 14:32:14;;;;;;;10.52;2.47;;;;;;;;;;4977499;28;39777;-79
2021/05/21 14:34:40;;;;;;;14.40;3.00;;;;;;;;;;4975248;28;39160;-79